createdAt,value
2018-08-24T00:02:14.016Z,63.48
2018-08-24T00:05:17.133Z,63.46
2018-08-24T00:08:20.219Z,62.88
2018-08-24T00:11:23.271Z,63.03
2018-08-24T00:14:27.294Z,63.35
2018-08-24T00:17:31.048Z,63.64
2018-08-24T00:20:34.135Z,62.40
2018-08-24T00:23:37.317Z,63.83
2018-08-24T00:26:40.441Z,63.56
2018-08-24T00:29:43.552Z,65.00
2018-08-24T00:32:46.634Z,65.43
2018-08-24T00:35:49.730Z,65.42
2018-08-24T00:38:52.938Z,65.16
2018-08-24T00:41:56.021Z,64.72
2018-08-24T00:44:59.122Z,66.11
2018-08-24T00:48:02.207Z,64.82
2018-08-24T00:51:05.397Z,64.78
2018-08-24T00:54:08.503Z,65.90
2018-08-24T00:57:11.593Z,67.98
2018-08-24T01:00:14.710Z,68.53
2018-08-24T01:03:17.790Z,69.88
2018-08-24T01:06:23.318Z,70.49
2018-08-24T01:09:26.398Z,73.09
2018-08-24T01:12:29.593Z,77.10
2018-08-24T01:15:46.878Z,78.14
2018-08-24T01:18:50.056Z,77.59
2018-08-24T01:21:53.308Z,79.04
2018-08-24T01:24:56.337Z,79.15
2018-08-24T01:27:59.482Z,79.42
2018-08-24T01:31:04.325Z,79.54
2018-08-24T01:34:07.427Z,75.92
2018-08-24T01:37:10.635Z,76.99
2018-08-24T01:40:13.862Z,75.30
2018-08-24T01:43:16.969Z,76.35
2018-08-24T01:46:20.070Z,75.46
2018-08-24T01:49:23.288Z,76.78
2018-08-24T01:52:26.401Z,76.07
2018-08-24T01:55:29.531Z,75.31
2018-08-24T01:58:32.700Z,75.69
2018-08-24T02:01:35.805Z,75.93
2018-08-24T02:04:38.999Z,74.98
2018-08-24T02:07:42.138Z,77.11
2018-08-24T02:10:45.244Z,76.67
2018-08-24T02:13:53.978Z,76.11
2018-08-24T02:16:57.205Z,74.15
2018-08-24T02:20:06.095Z,74.72
2018-08-24T02:23:13.144Z,73.82
2018-08-24T02:26:16.286Z,74.92
2018-08-24T02:29:19.390Z,74.78
2018-08-24T02:32:22.514Z,75.56
2018-08-24T02:35:25.630Z,76.74
2018-08-24T02:38:28.720Z,76.01
2018-08-24T02:41:31.869Z,76.65
2018-08-24T02:44:34.997Z,76.51
2018-08-24T02:47:38.136Z,75.47
2018-08-24T02:50:41.237Z,75.22
2018-08-24T02:53:44.354Z,74.86
2018-08-24T02:56:47.486Z,76.98
2018-08-24T02:59:50.632Z,74.59
2018-08-24T03:02:58.922Z,76.35
2018-08-24T03:06:02.278Z,76.24
2018-08-24T03:09:13.785Z,74.36
2018-08-24T03:12:16.939Z,74.85
2018-08-24T03:15:20.031Z,74.64
2018-08-24T03:18:23.182Z,75.32
2018-08-24T03:21:26.294Z,75.62
2018-08-24T03:24:29.375Z,76.20
2018-08-24T03:27:32.517Z,75.39
2018-08-24T03:30:35.619Z,76.12
2018-08-24T03:33:38.657Z,76.04
2018-08-24T03:36:41.823Z,75.50
2018-08-24T03:39:44.919Z,75.47
2018-08-24T03:42:48.074Z,75.80
2018-08-24T03:45:51.268Z,75.04
2018-08-24T03:48:54.290Z,74.72
2018-08-24T03:51:57.408Z,75.02
2018-08-24T03:55:00.541Z,74.86
2018-08-24T03:58:05.305Z,75.51
2018-08-24T04:01:08.395Z,74.40
2018-08-24T04:04:11.484Z,74.50
2018-08-24T04:07:14.641Z,74.06
2018-08-24T04:10:17.869Z,74.08
2018-08-24T04:13:20.971Z,74.95
2018-08-24T04:16:24.122Z,74.05
2018-08-24T04:19:28.150Z,74.83
2018-08-24T04:22:31.831Z,76.16
2018-08-24T04:25:34.995Z,75.71
2018-08-24T04:28:38.014Z,75.40
2018-08-24T04:31:41.080Z,76.00
2018-08-24T04:34:44.268Z,75.99
2018-08-24T04:37:47.382Z,75.89
2018-08-24T04:40:50.445Z,76.45
2018-08-24T04:43:53.662Z,76.05
2018-08-24T04:46:56.722Z,75.22
2018-08-24T04:49:59.810Z,75.92
2018-08-24T04:53:02.924Z,75.50
2018-08-24T04:56:06.601Z,77.09
2018-08-24T04:59:09.714Z,77.76
2018-08-24T05:02:12.842Z,77.34
2018-08-24T05:05:15.936Z,77.02
2018-08-24T05:08:19.049Z,76.93
2018-08-24T05:11:22.144Z,76.97
2018-08-24T05:14:25.286Z,77.88
2018-08-24T05:17:28.493Z,78.57
2018-08-24T05:20:31.577Z,77.64
2018-08-24T05:23:34.684Z,77.53
2018-08-24T05:26:37.774Z,78.96
2018-08-24T05:29:40.889Z,77.49
2018-08-24T05:32:43.919Z,80.30
2018-08-24T05:35:46.990Z,78.33
2018-08-24T05:38:50.106Z,77.43
2018-08-24T05:41:53.172Z,77.00
2018-08-24T05:44:56.317Z,77.17
2018-08-24T05:47:59.350Z,77.33
2018-08-24T05:51:02.387Z,77.72
2018-08-24T05:54:05.517Z,77.68
2018-08-24T05:57:08.582Z,76.87
2018-08-24T06:00:11.816Z,76.09
2018-08-24T06:03:14.894Z,76.47
2018-08-24T06:06:18.013Z,76.64
2018-08-24T06:09:21.125Z,76.61
2018-08-24T06:12:24.163Z,77.37
2018-08-24T06:15:27.779Z,76.10
2018-08-24T06:18:30.850Z,77.11
2018-08-24T06:21:34.110Z,77.98
2018-08-24T06:24:37.298Z,77.08
2018-08-24T06:27:40.512Z,77.46
2018-08-24T06:30:43.536Z,76.59
2018-08-24T06:33:46.532Z,77.46
2018-08-24T06:36:49.463Z,78.31
2018-08-24T06:39:52.463Z,77.08
2018-08-24T06:42:55.516Z,77.55
2018-08-24T06:45:58.733Z,77.18
2018-08-24T06:49:01.810Z,77.03
2018-08-24T06:52:05.014Z,77.08
2018-08-24T06:55:08.203Z,76.61
2018-08-24T06:58:11.154Z,78.34
2018-08-24T07:01:14.263Z,77.10
2018-08-24T07:04:17.252Z,77.44
2018-08-24T07:07:20.406Z,77.78
2018-08-24T07:10:23.560Z,75.31
2018-08-24T07:13:26.539Z,76.44
2018-08-24T07:16:30.558Z,74.83
2018-08-24T07:19:33.605Z,75.00
2018-08-24T07:22:36.746Z,75.64
2018-08-24T07:25:39.898Z,76.26
2018-08-24T07:28:42.802Z,76.06
2018-08-24T07:31:45.764Z,75.19
2018-08-24T07:34:48.786Z,75.14
2018-08-24T07:37:51.753Z,75.36
2018-08-24T07:40:54.764Z,75.32
2018-08-24T07:43:58.529Z,74.13
2018-08-24T07:47:01.678Z,75.87
2018-08-24T07:50:05.208Z,73.74
2018-08-24T07:53:08.566Z,75.27
2018-08-24T07:56:11.581Z,74.14
2018-08-24T07:59:14.567Z,75.68
2018-08-24T08:03:21.129Z,76.62
2018-08-24T08:06:24.195Z,76.79
2018-08-24T08:09:27.243Z,76.12
2018-08-24T08:12:30.376Z,75.96
2018-08-24T08:15:33.390Z,75.29
2018-08-24T08:18:36.839Z,74.65
2018-08-24T08:21:39.889Z,73.34
2018-08-24T08:24:42.984Z,73.05
2018-08-24T08:27:52.862Z,74.29
2018-08-24T08:30:56.125Z,71.51
2018-08-24T08:33:59.154Z,72.61
2018-08-24T08:37:02.542Z,72.76
2018-08-24T08:40:05.616Z,72.28
2018-08-24T08:43:08.618Z,70.77
2018-08-24T08:46:11.643Z,71.97
2018-08-24T08:49:14.632Z,71.14
2018-08-24T08:52:17.759Z,72.31
2018-08-24T08:55:20.812Z,73.65
2018-08-24T08:58:23.996Z,73.24
2018-08-24T09:01:26.999Z,73.02
2018-08-24T09:04:30.079Z,73.00
2018-08-24T09:07:33.140Z,73.78
2018-08-24T09:10:36.181Z,76.02
2018-08-24T09:13:39.194Z,74.99
2018-08-24T09:16:42.348Z,74.72
2018-08-24T09:19:50.995Z,75.75
2018-08-24T09:22:59.787Z,75.91
2018-08-24T09:26:08.579Z,76.57
2018-08-24T09:29:28.738Z,76.99
2018-08-24T09:32:31.880Z,77.03
2018-08-24T09:35:34.796Z,76.38
2018-08-24T09:38:37.842Z,74.75
2018-08-24T09:41:40.897Z,73.20
2018-08-24T09:44:43.935Z,73.58
2018-08-24T09:47:52.506Z,74.62
2018-08-24T09:51:01.283Z,74.27
2018-08-24T09:54:05.682Z,72.92
2018-08-24T09:57:08.748Z,72.60
2018-08-24T10:00:11.898Z,73.08
2018-08-24T10:03:20.603Z,70.79
2018-08-24T10:06:29.367Z,72.44
2018-08-24T10:09:32.490Z,71.33
2018-08-24T10:12:36.771Z,71.27
2018-08-24T10:15:39.779Z,69.97
2018-08-24T10:18:43.898Z,67.59
2018-08-24T10:21:46.935Z,66.77
2018-08-24T10:24:50.021Z,70.71
2018-08-24T10:27:53.199Z,66.94
2018-08-24T10:30:56.356Z,68.42
2018-08-24T10:33:59.425Z,63.66
2018-08-24T10:37:02.511Z,65.10
2018-08-24T10:40:05.752Z,63.90
2018-08-24T10:43:08.805Z,62.69
2018-08-24T10:46:11.777Z,60.82
2018-08-24T10:49:14.897Z,62.48
2018-08-24T10:52:17.949Z,60.99
2018-08-24T10:55:20.995Z,59.62
2018-08-24T10:58:24.018Z,57.23
2018-08-24T11:01:33.782Z,55.85
2018-08-24T11:04:36.823Z,53.84
2018-08-24T11:07:39.871Z,53.16
2018-08-24T11:10:42.989Z,53.72
2018-08-24T11:13:59.310Z,49.52
2018-08-24T11:17:03.005Z,48.04
2018-08-24T11:20:07.965Z,46.27
2018-08-24T11:23:11.196Z,46.75
2018-08-24T11:26:14.347Z,47.75
2018-08-24T11:29:17.500Z,45.81
2018-08-24T11:32:20.646Z,45.59
2018-08-24T11:35:24.821Z,47.46
2018-08-24T11:38:29.037Z,46.66
2018-08-24T11:41:34.043Z,46.33
2018-08-24T11:44:37.335Z,48.35
2018-08-24T11:47:40.445Z,46.98
2018-08-24T11:50:43.521Z,45.99
2018-08-24T11:54:04.249Z,47.06
2018-08-24T12:00:12.199Z,43.96
2018-08-24T12:03:22.980Z,43.60
2018-08-24T12:06:26.086Z,44.13
2018-08-24T12:09:29.230Z,43.83
2018-08-24T12:12:32.372Z,44.88
2018-08-24T12:15:36.004Z,44.08
2018-08-24T12:18:39.661Z,44.12
2018-08-24T12:22:02.445Z,42.88
2018-08-24T12:26:00.683Z,37.89
2018-08-24T12:29:04.570Z,38.29
2018-08-24T12:32:28.459Z,38.98
2018-08-24T12:35:32.009Z,37.01
2018-08-24T12:38:35.171Z,36.49
2018-08-24T12:41:38.378Z,37.01
2018-08-24T12:44:41.847Z,36.90
2018-08-24T12:47:44.869Z,37.27
2018-08-24T12:50:47.926Z,38.85
2018-08-24T12:53:50.976Z,37.78
2018-08-24T12:56:54.059Z,37.63
2018-08-24T13:00:04.199Z,38.00
2018-08-24T13:03:07.162Z,40.00
2018-08-24T13:06:10.506Z,39.13
2018-08-24T13:09:13.711Z,38.17
2018-08-24T13:12:16.951Z,39.33
2018-08-24T13:15:20.022Z,40.19
2018-08-24T13:18:23.047Z,42.97
2018-08-24T13:21:26.096Z,41.29
2018-08-24T13:24:29.159Z,41.48
2018-08-24T13:27:32.186Z,40.93
2018-08-24T13:30:35.263Z,41.43
2018-08-24T13:33:38.315Z,41.95
2018-08-24T13:36:41.448Z,39.52
2018-08-24T13:39:44.461Z,38.74
2018-08-24T13:42:47.567Z,39.39
2018-08-24T13:45:50.548Z,38.43
2018-08-24T13:48:53.527Z,37.36
2018-08-24T13:51:56.597Z,37.74
2018-08-24T13:54:59.684Z,38.06
2018-08-24T13:58:02.819Z,38.17
2018-08-24T14:01:06.114Z,38.37
2018-08-24T14:04:09.310Z,40.51
2018-08-24T14:07:12.399Z,40.11
2018-08-24T14:10:15.502Z,40.56
2018-08-24T14:13:18.626Z,39.04
2018-08-24T14:16:21.628Z,40.11
2018-08-24T14:19:24.734Z,41.58
2018-08-24T14:22:27.840Z,40.88
2018-08-24T14:25:31.009Z,39.92
2018-08-24T14:28:34.052Z,40.41
2018-08-24T14:31:37.350Z,41.16
2018-08-24T14:34:40.683Z,41.62
2018-08-24T14:37:43.801Z,42.26
2018-08-24T14:40:46.896Z,41.43
2018-08-24T14:43:49.987Z,42.56
2018-08-24T14:46:53.071Z,44.28
2018-08-24T14:49:56.216Z,41.01
2018-08-24T14:52:59.319Z,42.78
2018-08-24T14:56:02.401Z,42.00
2018-08-24T14:59:05.751Z,42.45
2018-08-24T15:02:08.821Z,39.99
2018-08-24T15:05:12.294Z,39.66
2018-08-24T15:08:15.385Z,39.84
2018-08-24T15:11:18.451Z,40.32
2018-08-24T15:14:21.506Z,41.34
2018-08-24T15:17:24.844Z,41.10
2018-08-24T15:20:27.900Z,40.98
2018-08-24T15:23:30.942Z,41.52
2018-08-24T15:26:34.034Z,43.44
2018-08-24T15:29:37.152Z,42.11
2018-08-24T15:32:40.210Z,40.90
2018-08-24T15:35:43.297Z,41.23
2018-08-24T15:38:46.386Z,40.67
2018-08-24T15:41:49.513Z,41.44
2018-08-24T15:44:52.620Z,41.59
2018-08-24T15:47:55.644Z,41.80
2018-08-24T15:50:58.710Z,40.71
2018-08-24T15:54:01.802Z,40.54
2018-08-24T15:57:04.947Z,41.39
2018-08-24T16:00:08.095Z,41.21
2018-08-24T16:03:11.122Z,41.44
2018-08-24T16:06:14.162Z,41.91
2018-08-24T16:09:17.135Z,41.83
2018-08-24T16:12:20.315Z,41.20
2018-08-24T16:15:23.303Z,42.02
2018-08-24T16:18:26.335Z,41.51
2018-08-24T16:21:29.365Z,42.58
2018-08-24T16:24:32.728Z,40.16
2018-08-24T16:27:35.852Z,48.72
2018-08-24T16:30:38.922Z,39.96
2018-08-24T16:33:41.961Z,40.44
2018-08-24T16:36:45.057Z,39.90
2018-08-24T16:39:48.054Z,40.40
2018-08-24T16:42:51.227Z,39.83
2018-08-24T16:45:54.228Z,40.65
2018-08-24T16:48:57.243Z,40.56
2018-08-24T16:52:00.394Z,41.36
2018-08-24T16:55:03.437Z,41.53
2018-08-24T16:58:06.640Z,41.30
2018-08-24T17:02:12.813Z,42.19
2018-08-24T17:05:15.916Z,41.27
2018-08-24T17:08:19.009Z,41.23
2018-08-24T17:11:22.129Z,40.97
2018-08-24T17:14:25.294Z,47.17
2018-08-24T17:17:28.460Z,44.91
2018-08-24T17:20:31.569Z,40.84
2018-08-24T17:23:36.849Z,40.01
2018-08-24T17:26:40.039Z,40.08
2018-08-24T17:29:43.186Z,41.06
2018-08-24T17:32:46.242Z,41.94
2018-08-24T17:35:49.300Z,41.46
2018-08-24T17:38:52.309Z,41.18
2018-08-24T17:41:55.623Z,40.70
2018-08-24T17:44:58.522Z,41.48
2018-08-24T17:48:01.674Z,41.68
2018-08-24T17:51:04.733Z,42.23
2018-08-24T17:54:07.810Z,41.71
2018-08-24T17:57:10.822Z,42.11
2018-08-24T18:00:16.427Z,41.60
2018-08-24T18:03:19.723Z,41.54
2018-08-24T18:06:23.952Z,42.29
2018-08-24T18:09:27.131Z,42.50
2018-08-24T18:12:30.189Z,43.27
2018-08-24T18:15:33.246Z,43.71
2018-08-24T18:18:36.473Z,44.15
2018-08-24T18:21:39.518Z,44.68
2018-08-24T18:24:42.604Z,44.69
2018-08-24T18:27:45.647Z,43.91
2018-08-24T18:30:48.667Z,44.36
2018-08-24T18:33:51.710Z,45.13
2018-08-24T18:36:54.771Z,44.16
2018-08-24T18:39:57.859Z,45.21
2018-08-24T18:43:00.902Z,45.22
2018-08-24T18:46:05.123Z,47.80
2018-08-24T18:49:08.148Z,47.72
2018-08-24T18:52:11.261Z,48.89
2018-08-24T18:55:14.339Z,48.12
2018-08-24T18:58:17.494Z,50.04
2018-08-24T19:01:20.585Z,50.64
2018-08-24T19:04:23.579Z,49.99
2018-08-24T19:07:26.592Z,48.75
2018-08-24T19:10:34.198Z,49.76
2018-08-24T19:13:37.498Z,51.62
2018-08-24T19:16:40.623Z,51.91
2018-08-24T19:19:49.237Z,51.05
2018-08-24T19:22:52.283Z,51.21
2018-08-24T19:25:55.398Z,51.92
2018-08-24T19:29:04.185Z,51.16
2018-08-24T19:32:07.624Z,51.77
2018-08-24T19:35:10.741Z,52.63
2018-08-24T19:38:13.883Z,52.13
2018-08-24T19:41:22.625Z,52.96
2018-08-24T19:44:25.901Z,53.72
2018-08-24T19:47:34.753Z,53.87
2018-08-24T19:50:38.270Z,53.82
2018-08-24T19:53:41.597Z,54.08
2018-08-24T19:56:45.151Z,53.98
2018-08-24T19:59:48.526Z,53.87
2018-08-24T20:02:51.696Z,53.96
2018-08-24T20:06:00.561Z,53.77
2018-08-24T20:10:15.266Z,53.85
2018-08-24T20:13:18.416Z,54.30
2018-08-24T20:16:27.460Z,54.55
2018-08-24T20:19:30.905Z,54.69
2018-08-24T20:22:36.873Z,54.54
2018-08-24T20:25:40.414Z,55.22
2018-08-24T20:28:44.013Z,54.91
2018-08-24T20:31:48.982Z,54.76
2018-08-24T20:34:52.099Z,55.17
2018-08-24T20:37:55.248Z,55.21
2018-08-24T20:40:58.387Z,55.28
2018-08-24T20:44:01.551Z,55.59
2018-08-24T20:47:04.808Z,55.59
2018-08-24T20:50:08.090Z,55.65
2018-08-24T20:53:13.032Z,56.01
2018-08-24T20:56:16.164Z,55.98
2018-08-24T20:59:19.241Z,56.52
2018-08-24T21:02:22.354Z,56.85
2018-08-24T21:05:25.554Z,56.84
2018-08-24T21:08:28.803Z,56.21
2018-08-24T21:11:31.939Z,56.26
2018-08-24T21:14:35.071Z,56.58
2018-08-24T21:17:38.265Z,56.39
2018-08-24T21:20:41.418Z,56.47
2018-08-24T21:23:44.643Z,56.88
2018-08-24T21:26:48.373Z,56.88
2018-08-24T21:29:51.429Z,56.78
2018-08-24T21:33:01.453Z,57.55
2018-08-24T21:36:05.529Z,56.41
2018-08-24T21:39:10.904Z,56.86
2018-08-24T21:42:13.999Z,57.42
2018-08-24T21:45:17.749Z,57.18
2018-08-24T21:48:21.380Z,58.83
2018-08-24T21:51:24.422Z,59.12
2018-08-24T21:54:27.506Z,58.49
2018-08-24T21:57:31.064Z,58.99
2018-08-24T22:00:38.871Z,58.58
2018-08-24T22:03:41.955Z,58.43
2018-08-24T22:06:45.128Z,58.80
2018-08-24T22:09:48.450Z,58.66
2018-08-24T22:12:51.590Z,58.00
2018-08-24T22:15:54.723Z,58.85
2018-08-24T22:18:57.798Z,58.34
2018-08-24T22:22:01.375Z,58.83
2018-08-24T22:25:04.622Z,58.72
2018-08-24T22:28:07.744Z,58.95
2018-08-24T22:31:10.880Z,58.17
2018-08-24T22:34:14.013Z,57.43
2018-08-24T22:37:17.128Z,57.54
2018-08-24T22:40:20.254Z,58.10
2018-08-24T22:43:29.056Z,58.04
2018-08-24T22:46:32.142Z,56.98
2018-08-24T22:49:35.270Z,56.32
2018-08-24T22:52:39.037Z,56.66
2018-08-24T22:55:42.166Z,56.09
2018-08-24T22:58:45.346Z,55.83
2018-08-24T23:01:48.449Z,55.05
2018-08-24T23:04:51.607Z,55.75
2018-08-24T23:07:54.723Z,55.19
2018-08-24T23:10:57.900Z,54.59
2018-08-24T23:14:01.025Z,54.45
2018-08-24T23:17:04.380Z,52.78
2018-08-24T23:20:07.528Z,52.82
2018-08-24T23:23:10.644Z,51.47
2018-08-24T23:26:13.769Z,52.13
2018-08-24T23:29:16.902Z,52.31
2018-08-24T23:32:20.102Z,50.17
2018-08-24T23:35:23.496Z,50.04
2018-08-24T23:38:26.533Z,51.29
2018-08-24T23:41:29.670Z,51.72
2018-08-24T23:44:32.814Z,50.24
2018-08-24T23:47:35.896Z,50.68
2018-08-24T23:50:39.043Z,51.32
2018-08-24T23:53:42.121Z,50.20
2018-08-24T23:56:45.234Z,50.95
2018-08-24T23:59:48.339Z,50.14
